createdAt,value
2023-04-03T00:01:19.758Z,99337.99
2023-04-03T00:04:07.613Z,99334.10
2023-04-03T00:06:42.208Z,99335.80
2023-04-03T00:09:12.695Z,99334.39
2023-04-03T00:11:42.970Z,99331.59
2023-04-03T00:14:11.144Z,99330.62
2023-04-03T00:16:55.925Z,99330.88
2023-04-03T00:19:24.398Z,99332.33
2023-04-03T00:21:54.667Z,99331.52
2023-04-03T00:24:23.467Z,99330.74
2023-04-03T00:26:59.729Z,99335.80
2023-04-03T00:29:29.023Z,99331.80
2023-04-03T00:31:57.201Z,99332.17
2023-04-03T00:34:26.105Z,99332.70
2023-04-03T00:36:54.686Z,99329.95
2023-04-03T00:39:23.290Z,99334.97
2023-04-03T00:41:57.077Z,99330.66
2023-04-03T00:44:34.736Z,99332.45
2023-04-03T00:50:06.743Z,99339.64
2023-04-03T00:52:35.458Z,99329.83
2023-04-03T00:55:06.464Z,99332.16
2023-04-03T00:57:34.729Z,99329.69
2023-04-03T01:00:06.904Z,99331.80
2023-04-03T01:02:35.727Z,99327.56
2023-04-03T01:05:05.419Z,99324.83
2023-04-03T01:07:36.246Z,99325.09
2023-04-03T01:10:07.498Z,99324.16
2023-04-03T01:12:37.524Z,99325.38
2023-04-03T01:15:08.056Z,99327.09
2023-04-03T01:17:42.017Z,99325.28
2023-04-03T01:20:19.474Z,99323.34
2023-04-03T01:23:13.620Z,99324.88
2023-04-03T01:25:49.988Z,99320.68
2023-04-03T01:28:27.683Z,99319.84
2023-04-03T01:31:08.142Z,99318.48
2023-04-03T01:33:36.792Z,99322.45
2023-04-03T01:36:06.079Z,99320.36
2023-04-03T01:38:36.961Z,99321.05
2023-04-03T01:41:05.442Z,99322.63
2023-04-03T01:43:33.982Z,99322.69
2023-04-03T01:46:01.936Z,99322.44
2023-04-03T01:48:30.534Z,99324.05
2023-04-03T01:51:00.397Z,99324.73
2023-04-03T01:53:28.774Z,99322.39
2023-04-03T01:56:01.372Z,99327.69
2023-04-03T01:58:30.346Z,99324.67
2023-04-03T02:00:58.430Z,99324.48
2023-04-03T02:03:27.404Z,99319.18
2023-04-03T02:05:55.584Z,99322.04
2023-04-03T02:08:23.768Z,99322.20
2023-04-03T02:10:52.138Z,99321.27
2023-04-03T02:13:20.620Z,99316.65
2023-04-03T02:15:49.418Z,99322.00
2023-04-03T02:18:18.853Z,99324.94
2023-04-03T02:20:48.915Z,99326.08
2023-04-03T02:23:17.507Z,99328.98
2023-04-03T02:25:45.989Z,99327.41
2023-04-03T02:28:13.978Z,99327.55
2023-04-03T02:30:43.201Z,99326.91
2023-04-03T02:33:12.857Z,99329.28
2023-04-03T02:35:41.721Z,99330.48
2023-04-03T02:38:10.034Z,99328.86
2023-04-03T02:40:38.797Z,99329.92
2023-04-03T02:43:07.134Z,99328.21
2023-04-03T02:45:36.929Z,99326.95
2023-04-03T02:48:06.064Z,99327.16
2023-04-03T02:50:34.073Z,99329.48
2023-04-03T02:53:02.481Z,99326.77
2023-04-03T02:55:30.759Z,99328.52
2023-04-03T02:57:59.223Z,99332.23
2023-04-03T03:00:27.401Z,99331.07
2023-04-03T03:02:56.368Z,99329.96
2023-04-03T03:05:24.521Z,99332.60
2023-04-03T03:07:53.081Z,99330.40
2023-04-03T03:10:21.284Z,99327.45
2023-04-03T03:12:50.271Z,99332.56
2023-04-03T03:15:20.521Z,99328.84
2023-04-03T03:17:50.456Z,99327.94
2023-04-03T03:20:25.785Z,99330.00
2023-04-03T03:22:54.886Z,99327.52
2023-04-03T03:25:24.641Z,99325.83
2023-04-03T03:27:53.997Z,99328.05
2023-04-03T03:30:22.986Z,99329.77
2023-04-03T03:32:51.203Z,99328.25
2023-04-03T03:35:19.325Z,99330.71
2023-04-03T03:37:50.581Z,99329.93
2023-04-03T03:40:19.562Z,99332.38
2023-04-03T03:42:47.560Z,99332.36
2023-04-03T03:45:15.942Z,99329.66
2023-04-03T03:47:44.034Z,99329.31
2023-04-03T03:50:12.161Z,99333.10
2023-04-03T03:52:40.481Z,99332.61
2023-04-03T03:55:09.120Z,99340.66
2023-04-03T03:57:37.751Z,99339.02
2023-04-03T04:00:08.172Z,99337.50
2023-04-03T04:02:47.820Z,99338.85
2023-04-03T04:05:19.024Z,99335.85
2023-04-03T04:07:47.400Z,99337.83
2023-04-03T04:10:15.906Z,99339.97
2023-04-03T04:12:44.565Z,99339.10
2023-04-03T04:15:14.312Z,99341.65
2023-04-03T04:17:44.037Z,99339.80
2023-04-03T04:20:13.337Z,99338.69
2023-04-03T04:22:41.360Z,99336.92
2023-04-03T04:25:10.114Z,99340.09
2023-04-03T04:27:39.594Z,99340.20
2023-04-03T04:30:09.302Z,99343.92
2023-04-03T04:32:38.228Z,99343.23
2023-04-03T04:35:07.016Z,99348.86
2023-04-03T04:37:36.460Z,99346.70
2023-04-03T04:40:06.778Z,99349.41
2023-04-03T04:42:35.053Z,99349.05
2023-04-03T04:45:08.830Z,99349.99
2023-04-03T04:47:38.172Z,99347.52
2023-04-03T04:50:07.373Z,99354.27
2023-04-03T04:52:36.285Z,99350.61
2023-04-03T04:55:05.981Z,99350.31
2023-04-03T04:57:36.604Z,99351.29
2023-04-03T05:00:07.716Z,99344.96
2023-04-03T05:02:41.905Z,99347.82
2023-04-03T05:05:10.507Z,99351.52
2023-04-03T05:07:39.520Z,99350.21
2023-04-03T05:10:08.888Z,99354.01
2023-04-03T05:12:38.147Z,99350.81
2023-04-03T05:15:08.348Z,99349.32
2023-04-03T05:17:36.678Z,99348.44
2023-04-03T05:20:07.274Z,99349.77
2023-04-03T05:22:36.547Z,99353.55
2023-04-03T05:25:08.271Z,99353.05
2023-04-03T05:27:38.116Z,99354.36
2023-04-03T05:30:07.109Z,99357.30
2023-04-03T05:32:35.669Z,99360.89
2023-04-03T05:35:34.773Z,99358.81
2023-04-03T05:38:04.186Z,99361.59
2023-04-03T05:40:32.912Z,99363.70
2023-04-03T05:43:01.367Z,99361.70
2023-04-03T05:45:32.857Z,99367.30
2023-04-03T05:48:01.880Z,99370.27
2023-04-03T05:50:31.299Z,99369.14
2023-04-03T05:52:59.909Z,99368.73
2023-04-03T05:55:29.350Z,99364.21
2023-04-03T05:57:57.854Z,99366.40
2023-04-03T06:00:25.806Z,99370.60
2023-04-03T06:03:02.950Z,99373.74
2023-04-03T06:05:31.422Z,99377.30
2023-04-03T06:07:59.614Z,99378.34
2023-04-03T06:10:27.678Z,99378.77
2023-04-03T06:12:56.603Z,99383.65
2023-04-03T06:15:25.741Z,99384.98
2023-04-03T06:17:54.450Z,99383.83
2023-04-03T06:20:23.374Z,99390.27
2023-04-03T06:22:51.818Z,99388.19
2023-04-03T06:25:20.272Z,99396.65
2023-04-03T06:27:48.587Z,99394.41
2023-04-03T06:30:16.962Z,99398.52
2023-04-03T06:32:46.289Z,99397.52
2023-04-03T06:35:15.338Z,99399.80
2023-04-03T06:37:44.455Z,99398.57
2023-04-03T06:40:26.337Z,99404.41
2023-04-03T06:42:54.508Z,99406.68
2023-04-03T06:45:22.880Z,99407.23
2023-04-03T06:47:51.238Z,99409.12
2023-04-03T06:50:19.603Z,99408.92
2023-04-03T06:52:48.223Z,99410.19
2023-04-03T06:55:16.608Z,99410.61
2023-04-03T06:57:44.900Z,99413.20
2023-04-03T07:00:14.207Z,99413.80
2023-04-03T07:02:55.190Z,99415.83
2023-04-03T07:05:23.479Z,99420.46
2023-04-03T07:07:53.900Z,99420.84
2023-04-03T07:10:22.156Z,99417.23
2023-04-03T07:12:51.267Z,99416.81
2023-04-03T07:15:20.000Z,99418.40
2023-04-03T07:17:48.041Z,99415.40
2023-04-03T07:20:17.089Z,99417.53
2023-04-03T07:22:46.062Z,99422.14
2023-04-03T07:25:14.344Z,99422.61
2023-04-03T07:27:42.559Z,99417.45
2023-04-03T07:30:11.105Z,99417.88
2023-04-03T07:32:39.969Z,99419.25
2023-04-03T07:35:08.587Z,99415.52
2023-04-03T07:37:36.847Z,99414.23
2023-04-03T07:40:06.303Z,99425.00
2023-04-03T07:42:34.657Z,99424.55
2023-04-03T07:45:06.935Z,99428.30
2023-04-03T07:47:35.614Z,99427.59
2023-04-03T07:50:04.013Z,99430.61
2023-04-03T07:52:36.342Z,99427.12
2023-04-03T07:55:04.558Z,99428.13
2023-04-03T07:57:33.671Z,99428.74
2023-04-03T08:00:02.809Z,99429.30
2023-04-03T08:02:40.999Z,99433.05
2023-04-03T08:05:09.557Z,99434.55
2023-04-03T08:07:38.863Z,99436.17
2023-04-03T08:10:08.001Z,99436.89
2023-04-03T08:12:37.949Z,99435.17
2023-04-03T08:15:08.576Z,99438.40
2023-04-03T08:17:39.046Z,99439.53
2023-04-03T08:20:09.184Z,99443.48
2023-04-03T08:22:37.235Z,99444.65
2023-04-03T08:25:07.380Z,99447.95
2023-04-03T08:27:35.662Z,99445.42
2023-04-03T08:30:07.372Z,99445.60
2023-04-03T08:32:37.412Z,99450.63
2023-04-03T08:35:06.930Z,99448.48
2023-04-03T08:37:38.395Z,99451.06
2023-04-03T08:40:08.022Z,99455.61
2023-04-03T08:42:57.980Z,99450.98
2023-04-03T08:45:39.065Z,99454.59
2023-04-03T08:48:08.563Z,99459.95
2023-04-03T08:50:41.744Z,99461.08
2023-04-03T08:53:17.598Z,99462.18
2023-04-03T08:55:50.452Z,99462.18
2023-04-03T08:58:23.591Z,99461.79
2023-04-03T09:01:05.154Z,99461.81
2023-04-03T09:03:39.539Z,99458.69
2023-04-03T09:06:17.582Z,99459.90
2023-04-03T09:09:04.572Z,99465.04
2023-04-03T09:11:57.669Z,99464.48
2023-04-03T09:14:33.602Z,99463.60
2023-04-03T09:17:15.432Z,99462.58
2023-04-03T09:19:53.049Z,99459.45
2023-04-03T09:22:27.902Z,99458.86
2023-04-03T09:25:22.457Z,99458.33
2023-04-03T09:27:52.489Z,99459.00
2023-04-03T09:30:22.779Z,99458.79
2023-04-03T09:32:53.714Z,99460.42
2023-04-03T09:35:44.722Z,99457.48
2023-04-03T09:38:18.816Z,99457.86
2023-04-03T09:40:52.764Z,99457.98
2023-04-03T09:43:31.771Z,99456.54
2023-04-03T09:46:32.923Z,99458.83
2023-04-03T09:49:08.728Z,99460.52
2023-04-03T09:51:38.857Z,99461.05
2023-04-03T09:54:26.416Z,99469.11
2023-04-03T09:56:54.874Z,99472.80
2023-04-03T09:59:23.456Z,99472.39
2023-04-03T10:02:07.686Z,99474.54
2023-04-03T10:04:40.966Z,99476.42
2023-04-03T10:07:37.583Z,99477.88
2023-04-03T10:10:24.947Z,99481.02
2023-04-03T10:13:08.178Z,99483.75
2023-04-03T10:16:00.153Z,99486.38
2023-04-03T10:18:34.684Z,99488.74
2023-04-03T10:21:14.520Z,99492.45
2023-04-03T10:23:52.650Z,99489.80
2023-04-03T10:26:52.254Z,99491.27
2023-04-03T10:29:35.566Z,99493.46
2023-04-03T10:32:35.224Z,99493.06
2023-04-03T10:35:13.501Z,99496.41
2023-04-03T10:37:50.265Z,99500.91
2023-04-03T10:40:32.664Z,99502.96
2023-04-03T10:43:07.488Z,99509.36
2023-04-03T10:45:44.496Z,99508.60
2023-04-03T10:48:15.418Z,99508.95
2023-04-03T10:50:46.064Z,99512.92
2023-04-03T10:53:55.814Z,99509.27
2023-04-03T10:56:27.273Z,99512.48
2023-04-03T10:58:58.924Z,99513.44
2023-04-03T11:01:32.731Z,99515.06
2023-04-03T11:04:02.234Z,99515.28
2023-04-03T11:06:42.442Z,99515.86
2023-04-03T11:09:40.578Z,99518.42
2023-04-03T11:12:13.540Z,99520.77
2023-04-03T11:14:43.082Z,99523.75
2023-04-03T11:17:17.697Z,99520.70
2023-04-03T11:19:54.247Z,99523.27
2023-04-03T11:22:25.049Z,99525.05
2023-04-03T11:24:59.916Z,99518.71
2023-04-03T11:27:31.898Z,99519.45
2023-04-03T11:30:00.016Z,99524.19
2023-04-03T11:32:35.171Z,99521.89
2023-04-03T11:35:03.206Z,99520.83
2023-04-03T11:37:38.806Z,99522.91
2023-04-03T11:40:20.554Z,99523.70
2023-04-03T11:43:18.773Z,99521.94
2023-04-03T11:45:50.755Z,99523.86
2023-04-03T11:48:29.357Z,99524.86
2023-04-03T11:51:00.630Z,99526.39
2023-04-03T11:53:35.717Z,99525.98
2023-04-03T11:56:24.233Z,99531.36
2023-04-03T11:59:14.785Z,99529.20
2023-04-03T12:01:46.954Z,99531.14
2023-04-03T12:04:16.923Z,99531.07
2023-04-03T12:06:46.059Z,99533.41
2023-04-03T12:09:26.703Z,99535.88
2023-04-03T12:12:00.977Z,99539.34
2023-04-03T12:14:29.777Z,99538.24
2023-04-03T12:16:59.158Z,99542.15
2023-04-03T12:19:42.940Z,99545.38
2023-04-03T12:22:18.769Z,99551.52
2023-04-03T12:24:49.516Z,99555.54
2023-04-03T12:27:30.883Z,99559.39
2023-04-03T12:30:05.183Z,99569.02
2023-04-03T12:33:12.525Z,99574.35
2023-04-03T12:36:00.612Z,99580.14
2023-04-03T12:39:09.156Z,99586.30
2023-04-03T12:41:41.199Z,99585.77
2023-04-03T12:44:21.710Z,99582.52
2023-04-03T12:46:51.843Z,99588.84
2023-04-03T12:49:40.251Z,99587.20
2023-04-03T12:52:19.164Z,99591.61
2023-04-03T12:54:47.524Z,99590.91
2023-04-03T12:57:22.136Z,99594.21
2023-04-03T12:59:50.741Z,99597.55
2023-04-03T13:02:24.891Z,99604.78
2023-04-03T13:06:56.626Z,99622.30
2023-04-03T13:09:29.337Z,99615.80
2023-04-03T13:12:15.190Z,99617.52
2023-04-03T13:14:56.604Z,99619.02
2023-04-03T13:17:26.734Z,99621.18
2023-04-03T13:19:56.202Z,99624.09
2023-04-03T13:22:30.594Z,99633.21
2023-04-03T13:25:02.649Z,99638.02
2023-04-03T13:27:31.946Z,99644.09
2023-04-03T13:30:01.497Z,99642.31
2023-04-03T13:32:31.033Z,99643.42
2023-04-03T13:35:08.148Z,99651.04
2023-04-03T13:37:57.047Z,99654.33
2023-04-03T13:40:26.589Z,99659.65
2023-04-03T13:43:07.076Z,99658.80
2023-04-03T13:45:37.214Z,99661.65
2023-04-03T13:48:23.168Z,99667.39
2023-04-03T13:51:12.597Z,99671.90
2023-04-03T13:53:52.592Z,99673.52
2023-04-03T13:56:43.043Z,99673.44
2023-04-03T13:59:10.976Z,99679.58
2023-04-03T14:01:42.355Z,99681.55
2023-04-03T14:04:14.949Z,99689.52
2023-04-03T14:06:43.115Z,99695.77
2023-04-03T14:09:12.815Z,99704.73
2023-04-03T14:11:42.066Z,99711.43
2023-04-03T14:14:18.845Z,99717.41
2023-04-03T14:16:49.839Z,99713.61
2023-04-03T14:19:26.708Z,99716.65
2023-04-03T14:21:56.916Z,99716.58
2023-04-03T14:24:25.166Z,99720.39
2023-04-03T14:26:54.541Z,99726.04
2023-04-03T14:29:22.825Z,99726.14
2023-04-03T14:31:57.687Z,99730.00
2023-04-03T14:34:29.848Z,99733.99
2023-04-03T14:36:57.853Z,99737.45
2023-04-03T14:39:27.735Z,99740.29
2023-04-03T14:41:55.829Z,99738.77
2023-04-03T14:44:24.484Z,99742.95
2023-04-03T14:46:57.699Z,99739.49
2023-04-03T14:49:30.491Z,99741.27
2023-04-03T14:51:58.784Z,99742.40
2023-04-03T14:54:28.917Z,99746.02
2023-04-03T14:56:58.432Z,99744.84
2023-04-03T14:59:27.099Z,99751.78
2023-04-03T15:01:56.247Z,99751.86
2023-04-03T15:04:26.346Z,99751.77
2023-04-03T15:06:55.077Z,99755.36
2023-04-03T15:09:25.131Z,99755.46
2023-04-03T15:11:54.176Z,99758.66
2023-04-03T15:16:53.722Z,99773.23
2023-04-03T15:19:21.755Z,99775.43
2023-04-03T15:21:49.897Z,99775.82
2023-04-03T15:24:18.031Z,99773.54
2023-04-03T15:26:46.105Z,99774.85
2023-04-03T15:29:14.199Z,99788.05
2023-04-03T15:31:42.283Z,99791.55
2023-04-03T15:34:10.723Z,99786.83
2023-04-03T15:36:38.821Z,99790.60
2023-04-03T15:39:06.965Z,99790.11
2023-04-03T15:41:34.896Z,99794.67
2023-04-03T15:44:03.234Z,99801.57
2023-04-03T15:46:31.724Z,99801.45
2023-04-03T15:48:59.983Z,99807.14
2023-04-03T15:51:28.394Z,99808.25
2023-04-03T15:53:56.546Z,99811.29
2023-04-03T15:56:24.660Z,99811.09
2023-04-03T15:58:52.873Z,99813.60
2023-04-03T16:01:21.043Z,99817.23
2023-04-03T16:03:50.493Z,99819.06
2023-04-03T16:06:19.859Z,99821.44
2023-04-03T16:08:48.459Z,99822.77
2023-04-03T16:11:16.466Z,99824.64
2023-04-03T16:13:44.538Z,99826.48
2023-04-03T16:16:13.064Z,99827.61
2023-04-03T16:18:41.100Z,99831.02
2023-04-03T16:21:09.890Z,99827.41
2023-04-03T16:23:38.105Z,99830.36
2023-04-03T16:26:06.256Z,99829.02
2023-04-03T16:28:35.040Z,99836.05
2023-04-03T16:31:03.084Z,99839.92
2023-04-03T16:33:32.666Z,99838.52
2023-04-03T16:36:00.981Z,99840.08
2023-04-03T16:38:29.075Z,99843.83
2023-04-03T16:41:03.610Z,99843.73
2023-04-03T16:43:33.004Z,99844.48
2023-04-03T16:46:03.518Z,99847.79
2023-04-03T16:48:32.289Z,99852.02
2023-04-03T16:51:03.984Z,99853.02
2023-04-03T16:53:32.211Z,99857.82
2023-04-03T16:56:00.673Z,99858.33
2023-04-03T16:58:28.741Z,99862.27
2023-04-03T17:01:19.092Z,99860.51
2023-04-03T17:03:49.257Z,99864.33
2023-04-03T17:06:19.019Z,99872.83
2023-04-03T17:08:48.802Z,99871.41
2023-04-03T17:11:28.809Z,99877.01
2023-04-03T17:13:57.127Z,99875.31
2023-04-03T17:16:25.298Z,99875.36
2023-04-03T17:18:55.717Z,99879.66
2023-04-03T17:21:24.032Z,99882.30
2023-04-03T17:23:58.459Z,99887.15
2023-04-03T17:26:27.308Z,99891.54
2023-04-03T17:28:55.268Z,99894.10
2023-04-03T17:31:23.390Z,99894.27
2023-04-03T17:33:53.551Z,99893.92
2023-04-03T17:36:31.372Z,99902.70
2023-04-03T17:38:59.753Z,99904.48
2023-04-03T17:41:27.952Z,99907.36
2023-04-03T17:43:57.168Z,99914.30
2023-04-03T17:46:25.495Z,99919.61
2023-04-03T17:48:54.378Z,99917.70
2023-04-03T17:51:23.695Z,99918.87
2023-04-03T17:53:52.162Z,99917.72
2023-04-03T17:56:24.915Z,99923.80
2023-04-03T17:58:54.124Z,99922.10
2023-04-03T18:01:32.848Z,99922.32
2023-04-03T18:04:03.170Z,99924.59
2023-04-03T18:06:50.998Z,99924.88
2023-04-03T18:09:24.521Z,99928.30
2023-04-03T18:11:52.640Z,99928.73
2023-04-03T18:14:22.638Z,99930.04
2023-04-03T18:16:51.803Z,99933.91
2023-04-03T18:19:22.750Z,99931.39
2023-04-03T18:22:01.499Z,99935.34
2023-04-03T18:24:29.744Z,99937.28
2023-04-03T18:27:01.279Z,99941.89
2023-04-03T18:29:30.915Z,99938.45
2023-04-03T18:32:04.688Z,99938.04
2023-04-03T18:34:33.532Z,99937.60
2023-04-03T18:37:03.586Z,99943.77
2023-04-03T18:39:36.293Z,99946.82
2023-04-03T18:42:13.395Z,99948.01
2023-04-03T18:44:42.637Z,99949.33
2023-04-03T18:47:13.328Z,99955.70
2023-04-03T18:49:42.048Z,99955.02
2023-04-03T18:52:11.256Z,99953.25
2023-04-03T18:54:39.256Z,99954.80
2023-04-03T18:57:07.285Z,99960.39
2023-04-03T18:59:38.935Z,99959.38
2023-04-03T19:02:08.594Z,99967.20
2023-04-03T19:04:36.952Z,99969.90
2023-04-03T19:07:06.682Z,99974.64
2023-04-03T19:09:36.478Z,99977.99
2023-04-03T19:12:05.057Z,99985.86
2023-04-03T19:14:37.893Z,99985.04
2023-04-03T19:17:08.454Z,99989.54
2023-04-03T19:19:37.068Z,99983.58
2023-04-03T19:22:07.082Z,99990.27
2023-04-03T19:24:36.817Z,99992.35
2023-04-03T19:27:04.813Z,100000.89
2023-04-03T19:29:33.008Z,99999.34
2023-04-03T19:32:01.921Z,99996.55
2023-04-03T19:34:30.753Z,99998.83
2023-04-03T19:36:59.208Z,99998.92
2023-04-03T19:39:29.108Z,100002.09
2023-04-03T19:41:57.139Z,99998.34
2023-04-03T19:44:26.646Z,100000.95
2023-04-03T19:46:57.254Z,99999.03
2023-04-03T19:49:25.492Z,99990.27
2023-04-03T19:51:53.954Z,99990.98
2023-04-03T19:54:22.758Z,99994.54
2023-04-03T19:56:53.920Z,99993.93
2023-04-03T19:59:22.330Z,99989.61
2023-04-03T20:01:50.918Z,99991.08
2023-04-03T20:04:19.203Z,99987.05
2023-04-03T20:06:47.399Z,99982.34
2023-04-03T20:09:16.202Z,99974.83
2023-04-03T20:11:53.820Z,99971.07
2023-04-03T20:14:22.830Z,99965.28
2023-04-03T20:16:51.555Z,99967.47
2023-04-03T20:19:19.775Z,99971.90
2023-04-03T20:21:49.020Z,99980.17
2023-04-03T20:24:17.925Z,99984.08
2023-04-03T20:26:47.364Z,99982.98
2023-04-03T20:29:17.157Z,99984.35
2023-04-03T20:31:46.868Z,99985.80
2023-04-03T20:34:16.206Z,99987.69
2023-04-03T20:36:49.652Z,99987.50
2023-04-03T20:39:19.542Z,99995.80
2023-04-03T20:41:49.178Z,100007.20
2023-04-03T20:44:18.557Z,100008.98
2023-04-03T20:46:52.933Z,100009.80
2023-04-03T20:49:23.250Z,100015.70
2023-04-03T20:51:54.511Z,100017.92
2023-04-03T20:54:24.106Z,100022.58
2023-04-03T20:56:52.858Z,100029.92
2023-04-03T20:59:22.804Z,100033.33
2023-04-03T21:01:51.164Z,100030.55
2023-04-03T21:04:27.608Z,100033.23
2023-04-03T21:07:33.379Z,100032.18
2023-04-03T21:10:40.354Z,100025.77
2023-04-03T21:13:47.134Z,100025.98
2023-04-03T21:16:15.227Z,100018.42
2023-04-03T21:19:09.309Z,100011.36
2023-04-03T21:21:37.362Z,100007.23
2023-04-03T21:24:07.095Z,100012.63
2023-04-03T21:26:36.038Z,100012.28
2023-04-03T21:29:04.143Z,100011.66
2023-04-03T21:32:07.867Z,100016.02
2023-04-03T21:34:37.053Z,100024.30
2023-04-03T21:37:06.239Z,100029.97
2023-04-03T21:39:37.389Z,100029.41
2023-04-03T21:42:07.420Z,100030.77
2023-04-03T21:44:35.990Z,100027.44
2023-04-03T21:47:05.088Z,100024.20
2023-04-03T21:49:34.383Z,100024.13
2023-04-03T21:52:05.511Z,100028.90
2023-04-03T21:54:34.937Z,100034.54
2023-04-03T21:57:02.961Z,100034.52
2023-04-03T21:59:33.295Z,100038.02
2023-04-03T22:02:02.242Z,100038.30
2023-04-03T22:04:30.696Z,100039.30
2023-04-03T22:06:59.661Z,100046.59
2023-04-03T22:09:27.913Z,100049.55
2023-04-03T22:11:55.873Z,100043.64
2023-04-03T22:14:23.964Z,100040.71
2023-04-03T22:16:53.098Z,100042.08
2023-04-03T22:19:21.172Z,100047.39
2023-04-03T22:21:55.277Z,100054.41
2023-04-03T22:24:23.743Z,100054.77
2023-04-03T22:26:51.650Z,100058.20
2023-04-03T22:29:19.903Z,100055.61
2023-04-03T22:31:47.935Z,100052.49
2023-04-03T22:34:16.778Z,100054.69
2023-04-03T22:36:44.903Z,100049.85
2023-04-03T22:39:15.307Z,100045.97
2023-04-03T22:41:45.496Z,100049.66
2023-04-03T22:44:13.846Z,100045.61
2023-04-03T22:46:42.878Z,100047.68
2023-04-03T22:49:11.249Z,100046.98
2023-04-03T22:51:39.416Z,100047.64
2023-04-03T22:54:08.323Z,100042.83
2023-04-03T22:56:36.547Z,100040.48
2023-04-03T22:59:04.952Z,100040.14
2023-04-03T23:01:33.607Z,100040.38
2023-04-03T23:04:02.676Z,100046.80
2023-04-03T23:06:32.522Z,100048.71
2023-04-03T23:09:01.453Z,100048.48
2023-04-03T23:11:29.716Z,100052.17
2023-04-03T23:13:59.323Z,100051.20
2023-04-03T23:16:27.715Z,100055.02
2023-04-03T23:18:55.834Z,100058.25
2023-04-03T23:21:24.978Z,100056.83
2023-04-03T23:23:52.933Z,100055.17
2023-04-03T23:26:21.010Z,100055.67
2023-04-03T23:28:49.497Z,100060.27
2023-04-03T23:31:17.831Z,100060.15
2023-04-03T23:33:46.669Z,100059.75
2023-04-03T23:36:16.196Z,100053.70
2023-04-03T23:38:49.750Z,100048.09
2023-04-03T23:41:17.951Z,100050.48
2023-04-03T23:43:47.570Z,100052.70
2023-04-03T23:46:15.555Z,100054.63
2023-04-03T23:48:43.829Z,100055.99
2023-04-03T23:51:13.536Z,100056.02
2023-04-03T23:53:42.345Z,100052.13
2023-04-03T23:56:12.717Z,100055.92
2023-04-03T23:58:43.042Z,100057.77
